Time;durP1;ratioP1;P1;durP2;ratioP2;P2;SDS_P1;SDS_P2;PMS_P1;PMS_P2;Temp;Humidity;BMP_temperature;BMP_pressure;BME280_temperature;BME280_humidity;BME280_pressure;Samples;Min_cycle;Max_cycle;Signal;HPM_P1;HPM_P2
2023/04/24 00:01:40;;;;;;;7.13;6.53;;;;;;;;;;5049219;28;20622;-68
2023/04/24 00:04:06;;;;;;;8.02;7.22;;;;;;;;;;5048156;28;20228;-68
2023/04/24 00:06:33;;;;;;;7.72;6.93;;;;;;;;;;5048744;28;20181;-68
2023/04/24 00:09:02;;;;;;;7.82;6.97;;;;;;;;;;5048878;28;20284;-68
2023/04/24 00:11:28;;;;;;;7.82;7.10;;;;;;;;;;5048834;28;20225;-68
2023/04/24 00:13:53;;;;;;;7.90;7.13;;;;;;;;;;5034824;28;20459;-68
2023/04/24 00:16:19;;;;;;;8.55;7.68;;;;;;;;;;5048598;28;20197;-68
2023/04/24 00:18:47;;;;;;;9.38;8.00;;;;;;;;;;5048515;28;20660;-68
2023/04/24 00:21:14;;;;;;;8.48;7.50;;;;;;;;;;5048448;28;20661;-68
2023/04/24 00:23:40;;;;;;;7.85;7.15;;;;;;;;;;5048355;28;20207;-68
2023/04/24 00:26:05;;;;;;;9.52;6.90;;;;;;;;;;5049136;28;20605;-68
2023/04/24 00:28:30;;;;;;;7.32;6.63;;;;;;;;;;5043264;28;20189;-69
2023/04/24 00:30:56;;;;;;;6.72;6.03;;;;;;;;;;5040807;28;20657;-69
2023/04/24 00:33:21;;;;;;;11.25;6.65;;;;;;;;;;5047237;28;20189;-68
2023/04/24 00:35:47;;;;;;;7.68;6.53;;;;;;;;;;5034444;28;20653;-69
2023/04/24 00:38:12;;;;;;;7.35;6.25;;;;;;;;;;5039283;28;20204;-69
2023/04/24 00:40:38;;;;;;;7.15;6.20;;;;;;;;;;5032165;28;20216;-69
2023/04/24 00:43:03;;;;;;;7.28;5.95;;;;;;;;;;5052177;28;20221;-68
2023/04/24 00:45:31;;;;;;;9.70;6.65;;;;;;;;;;5047649;28;20225;-68
2023/04/24 00:47:56;;;;;;;6.57;5.88;;;;;;;;;;5041327;28;20544;-69
2023/04/24 00:50:21;;;;;;;8.75;6.43;;;;;;;;;;5030939;28;20175;-68
2023/04/24 00:52:47;;;;;;;7.07;5.97;;;;;;;;;;5043188;28;20657;-68
2023/04/24 00:55:12;;;;;;;7.82;6.75;;;;;;;;;;5046046;28;20215;-68
2023/04/24 00:57:38;;;;;;;7.70;6.88;;;;;;;;;;5038038;28;20602;-68
2023/04/24 01:00:05;;;;;;;9.43;6.97;;;;;;;;;;5032198;28;20224;-68
2023/04/24 01:02:34;;;;;;;11.55;8.05;;;;;;;;;;5041313;28;20226;-67
2023/04/24 01:05:00;;;;;;;10.02;8.57;;;;;;;;;;5047263;28;20212;-68
2023/04/24 01:07:27;;;;;;;11.35;9.07;;;;;;;;;;5042292;28;20189;-68
2023/04/24 01:09:52;;;;;;;9.27;8.27;;;;;;;;;;5048838;28;20644;-68
2023/04/24 01:12:19;;;;;;;11.93;9.45;;;;;;;;;;5047032;28;20193;-68
2023/04/24 01:14:45;;;;;;;9.35;8.40;;;;;;;;;;5029268;28;20185;-68
2023/04/24 01:17:10;;;;;;;11.95;10.02;;;;;;;;;;5040313;28;20197;-68
2023/04/24 01:19:37;;;;;;;12.13;8.88;;;;;;;;;;5042040;28;20186;-68
2023/04/24 01:22:13;;;;;;;12.75;9.07;;;;;;;;;;5046339;28;20268;-68
2023/04/24 01:24:39;;;;;;;10.35;8.73;;;;;;;;;;5033447;28;20625;-68
2023/04/24 01:27:05;;;;;;;10.63;9.23;;;;;;;;;;5047485;28;20185;-68
2023/04/24 01:29:30;;;;;;;11.57;8.65;;;;;;;;;;5036093;28;20189;-70
2023/04/24 01:31:56;;;;;;;9.65;7.88;;;;;;;;;;5048227;28;20189;-69
2023/04/24 01:34:22;;;;;;;8.65;7.20;;;;;;;;;;5044958;28;20205;-68
2023/04/24 01:36:47;;;;;;;9.30;7.13;;;;;;;;;;5014477;28;20225;-70
2023/04/24 01:39:13;;;;;;;9.65;7.18;;;;;;;;;;5036604;28;20549;-68
2023/04/24 01:41:39;;;;;;;7.65;6.72;;;;;;;;;;5031428;28;20641;-70
2023/04/24 01:44:04;;;;;;;8.38;7.40;;;;;;;;;;5044741;28;20223;-68
2023/04/24 01:46:31;;;;;;;9.85;7.85;;;;;;;;;;5032342;28;20193;-68
2023/04/24 01:48:59;;;;;;;16.40;9.27;;;;;;;;;;5036304;28;20181;-68
2023/04/24 01:51:25;;;;;;;11.88;10.05;;;;;;;;;;5038614;28;20193;-68
2023/04/24 01:53:50;;;;;;;12.68;10.25;;;;;;;;;;5046510;28;20188;-68
2023/04/24 01:56:15;;;;;;;12.95;9.95;;;;;;;;;;5041950;28;20254;-68
2023/04/24 01:58:41;;;;;;;11.48;10.02;;;;;;;;;;5043099;28;20189;-68
2023/04/24 02:01:06;;;;;;;11.02;9.02;;;;;;;;;;5045818;28;20304;-69
2023/04/24 02:03:32;;;;;;;10.63;8.73;;;;;;;;;;5045693;28;20201;-68
2023/04/24 02:05:57;;;;;;;11.32;8.55;;;;;;;;;;5031700;28;20217;-68
2023/04/24 02:08:22;;;;;;;9.90;8.05;;;;;;;;;;5033082;28;20197;-68
2023/04/24 02:10:48;;;;;;;8.80;7.25;;;;;;;;;;5038285;28;20208;-68
2023/04/24 02:13:13;;;;;;;10.00;7.28;;;;;;;;;;5037531;28;20194;-68
2023/04/24 02:15:39;;;;;;;8.13;6.43;;;;;;;;;;5027272;28;20650;-68
2023/04/24 02:18:04;;;;;;;10.02;6.50;;;;;;;;;;5039350;28;20273;-68
2023/04/24 02:20:30;;;;;;;9.80;7.60;;;;;;;;;;5033173;28;20185;-68
2023/04/24 02:22:55;;;;;;;9.68;8.15;;;;;;;;;;5046387;28;20193;-69
2023/04/24 02:25:21;;;;;;;11.40;9.30;;;;;;;;;;5040644;28;20201;-68
2023/04/24 02:27:46;;;;;;;12.40;10.25;;;;;;;;;;5047052;28;20189;-68
2023/04/24 02:30:12;;;;;;;14.60;10.98;;;;;;;;;;5038902;28;20220;-68
2023/04/24 02:32:38;;;;;;;17.20;12.98;;;;;;;;;;5043293;28;20582;-69
2023/04/24 02:35:04;;;;;;;15.73;12.35;;;;;;;;;;5049975;28;20196;-69
2023/04/24 02:37:30;;;;;;;17.58;12.43;;;;;;;;;;5038353;28;20193;-71
2023/04/24 02:39:55;;;;;;;16.88;13.32;;;;;;;;;;5043514;28;20296;-70
2023/04/24 02:42:20;;;;;;;15.77;12.75;;;;;;;;;;5015588;28;20279;-68
2023/04/24 02:44:46;;;;;;;17.98;12.77;;;;;;;;;;5029953;28;20261;-68
2023/04/24 02:47:11;;;;;;;16.30;12.27;;;;;;;;;;5034976;28;20202;-69
2023/04/24 02:49:36;;;;;;;15.85;11.90;;;;;;;;;;5046137;28;20193;-68
2023/04/24 02:52:02;;;;;;;20.02;11.98;;;;;;;;;;5036719;28;20186;-68
2023/04/24 02:54:27;;;;;;;16.40;11.20;;;;;;;;;;5048152;28;20581;-68
2023/04/24 02:56:52;;;;;;;16.52;10.95;;;;;;;;;;5050226;28;20692;-68
2023/04/24 02:59:18;;;;;;;13.77;10.73;;;;;;;;;;5034485;28;20269;-68
2023/04/24 03:01:43;;;;;;;12.85;10.05;;;;;;;;;;5035641;28;20202;-69
2023/04/24 03:04:10;;;;;;;13.43;8.93;;;;;;;;;;5037634;28;20213;-68
2023/04/24 03:06:35;;;;;;;8.57;7.28;;;;;;;;;;5043006;28;20704;-68
2023/04/24 03:09:01;;;;;;;8.93;7.25;;;;;;;;;;5038800;28;20225;-68
2023/04/24 03:11:26;;;;;;;9.18;7.45;;;;;;;;;;5034288;28;20560;-68
2023/04/24 03:13:52;;;;;;;10.85;8.20;;;;;;;;;;5037167;28;20198;-68
2023/04/24 03:16:17;;;;;;;10.80;7.93;;;;;;;;;;5029429;28;20194;-68
2023/04/24 03:18:42;;;;;;;9.43;7.70;;;;;;;;;;5047957;28;20201;-69
2023/04/24 03:21:08;;;;;;;10.90;8.45;;;;;;;;;;5041641;28;20268;-68
2023/04/24 03:23:33;;;;;;;10.23;8.43;;;;;;;;;;5046999;28;20201;-67
2023/04/24 03:25:59;;;;;;;11.55;9.02;;;;;;;;;;5035692;28;20190;-67
2023/04/24 03:28:25;;;;;;;10.65;8.52;;;;;;;;;;5032578;28;20197;-68
2023/04/24 03:30:50;;;;;;;9.40;7.90;;;;;;;;;;5045514;28;20200;-68
2023/04/24 03:33:15;;;;;;;8.93;7.18;;;;;;;;;;5045323;28;20626;-69
2023/04/24 03:35:41;;;;;;;8.55;6.90;;;;;;;;;;5033362;28;20225;-68
2023/04/24 03:38:06;;;;;;;8.63;6.88;;;;;;;;;;5034089;28;20185;-68
2023/04/24 03:40:33;;;;;;;8.13;6.82;;;;;;;;;;5047553;28;20278;-68
2023/04/24 03:42:58;;;;;;;7.82;6.15;;;;;;;;;;5041845;28;20755;-68
2023/04/24 03:45:24;;;;;;;8.25;5.80;;;;;;;;;;5041545;28;20237;-68
2023/04/24 03:47:49;;;;;;;7.80;6.70;;;;;;;;;;5047177;28;20189;-68
2023/04/24 03:50:15;;;;;;;9.82;7.55;;;;;;;;;;5036007;28;20202;-68
2023/04/24 03:52:40;;;;;;;10.68;7.90;;;;;;;;;;5049789;28;20219;-68
2023/04/24 03:55:06;;;;;;;11.00;8.38;;;;;;;;;;5042553;28;20234;-68
2023/04/24 03:57:32;;;;;;;11.35;8.57;;;;;;;;;;5036773;28;20287;-68
2023/04/24 03:59:57;;;;;;;13.25;10.32;;;;;;;;;;5030716;28;20712;-69
2023/04/24 04:02:22;;;;;;;13.93;9.63;;;;;;;;;;5033106;28;20194;-68
2023/04/24 04:04:48;;;;;;;13.38;10.63;;;;;;;;;;5035012;28;20292;-68
2023/04/24 04:07:13;;;;;;;14.82;10.82;;;;;;;;;;5033201;28;20276;-68
2023/04/24 04:09:38;;;;;;;15.18;11.95;;;;;;;;;;5029568;28;20563;-68
2023/04/24 04:12:04;;;;;;;15.98;12.65;;;;;;;;;;5033745;28;20196;-68
2023/04/24 04:14:29;;;;;;;17.95;12.18;;;;;;;;;;5035544;28;20197;-69
2023/04/24 04:16:55;;;;;;;17.02;12.23;;;;;;;;;;5048618;28;20220;-68
2023/04/24 04:19:20;;;;;;;18.23;13.15;;;;;;;;;;5048696;28;20193;-69
2023/04/24 04:21:45;;;;;;;19.05;13.77;;;;;;;;;;5047332;28;20240;-67
2023/04/24 04:24:11;;;;;;;16.90;12.18;;;;;;;;;;5037306;28;20531;-68
2023/04/24 04:26:37;;;;;;;17.67;13.00;;;;;;;;;;5034221;28;20236;-69
2023/04/24 04:29:03;;;;;;;20.30;13.85;;;;;;;;;;5046219;28;20272;-68
2023/04/24 04:31:30;;;;;;;19.08;14.02;;;;;;;;;;5035503;28;20283;-69
2023/04/24 04:33:55;;;;;;;22.13;15.35;;;;;;;;;;5044556;28;20186;-67
2023/04/24 04:36:20;;;;;;;19.92;15.40;;;;;;;;;;5047835;28;20421;-68
2023/04/24 04:38:46;;;;;;;20.25;15.18;;;;;;;;;;5043213;28;20265;-69
2023/04/24 04:41:11;;;;;;;22.15;15.35;;;;;;;;;;5043782;28;20275;-68
2023/04/24 04:43:39;;;;;;;20.48;14.15;;;;;;;;;;5048634;28;20255;-69
2023/04/24 04:46:05;;;;;;;20.38;12.95;;;;;;;;;;5048444;28;20229;-69
2023/04/24 04:48:31;;;;;;;18.23;13.07;;;;;;;;;;5035370;28;20200;-69
2023/04/24 04:50:57;;;;;;;19.25;13.77;;;;;;;;;;5040599;28;20556;-69
2023/04/24 04:53:22;;;;;;;21.13;14.43;;;;;;;;;;5042588;28;20609;-69
2023/04/24 04:55:48;;;;;;;23.67;16.23;;;;;;;;;;5040559;28;20240;-70
2023/04/24 04:58:13;;;;;;;24.05;17.13;;;;;;;;;;5040882;28;20189;-71
2023/04/24 05:00:39;;;;;;;30.60;17.60;;;;;;;;;;5034725;28;20249;-69
2023/04/24 05:03:05;;;;;;;25.88;18.73;;;;;;;;;;5039866;28;20193;-68
2023/04/24 05:05:30;;;;;;;26.05;20.15;;;;;;;;;;5044693;28;20189;-69
2023/04/24 05:07:55;;;;;;;31.42;21.55;;;;;;;;;;5045419;28;20678;-70
2023/04/24 05:10:21;;;;;;;32.78;22.58;;;;;;;;;;5039093;28;20177;-69
2023/04/24 05:12:46;;;;;;;33.97;22.35;;;;;;;;;;5044722;28;20212;-70
2023/04/24 05:15:11;;;;;;;37.25;23.50;;;;;;;;;;5028419;28;20201;-71
2023/04/24 05:17:37;;;;;;;40.47;24.45;;;;;;;;;;5035167;28;20722;-70
2023/04/24 05:20:06;;;;;;;39.22;25.55;;;;;;;;;;5045114;28;20193;-70
2023/04/24 05:22:32;;;;;;;45.17;26.10;;;;;;;;;;5043461;28;20247;-71
2023/04/24 05:24:57;;;;;;;37.85;26.85;;;;;;;;;;5036020;28;20240;-70
2023/04/24 05:27:23;;;;;;;39.30;26.80;;;;;;;;;;5038563;28;20197;-68
2023/04/24 05:29:48;;;;;;;40.95;27.83;;;;;;;;;;5036190;28;20534;-70
2023/04/24 05:32:13;;;;;;;40.08;27.35;;;;;;;;;;5032269;28;20673;-69
2023/04/24 05:34:39;;;;;;;38.65;26.48;;;;;;;;;;5034310;28;20205;-68
2023/04/24 05:37:08;;;;;;;39.58;27.67;;;;;;;;;;5034227;28;20217;-70
2023/04/24 05:39:35;;;;;;;39.45;25.40;;;;;;;;;;5037835;28;20455;-70
2023/04/24 05:42:01;;;;;;;40.85;24.58;;;;;;;;;;5037620;28;20185;-69
2023/04/24 05:44:26;;;;;;;43.53;27.13;;;;;;;;;;5043649;28;20244;-69
2023/04/24 05:46:52;;;;;;;36.95;24.77;;;;;;;;;;5027626;28;20202;-67
2023/04/24 05:49:17;;;;;;;37.72;25.98;;;;;;;;;;5039346;28;20685;-67
2023/04/24 05:51:42;;;;;;;35.00;23.52;;;;;;;;;;5040426;28;20193;-69
2023/04/24 05:54:08;;;;;;;36.22;24.83;;;;;;;;;;5034363;28;20197;-68
2023/04/24 05:56:40;;;;;;;35.42;23.10;;;;;;;;;;5036373;28;20197;-69
2023/04/24 05:59:06;;;;;;;37.30;24.65;;;;;;;;;;5036499;28;20189;-69
2023/04/24 06:01:31;;;;;;;35.85;24.42;;;;;;;;;;5039392;28;20213;-70
2023/04/24 06:03:57;;;;;;;36.08;23.42;;;;;;;;;;5031744;28;20405;-70
2023/04/24 06:06:24;;;;;;;33.08;22.30;;;;;;;;;;5034150;28;20201;-68
2023/04/24 06:08:49;;;;;;;34.90;23.65;;;;;;;;;;5042069;28;20194;-70
2023/04/24 06:11:14;;;;;;;33.63;23.17;;;;;;;;;;5036158;28;20225;-70
2023/04/24 06:13:40;;;;;;;32.47;22.60;;;;;;;;;;5034887;28;20189;-71
2023/04/24 06:16:05;;;;;;;34.85;23.23;;;;;;;;;;5025498;28;20563;-71
2023/04/24 06:18:31;;;;;;;33.65;23.10;;;;;;;;;;5045368;28;20194;-71
2023/04/24 06:20:56;;;;;;;32.53;22.60;;;;;;;;;;5043555;28;20204;-70
2023/04/24 06:23:21;;;;;;;30.60;22.17;;;;;;;;;;5040165;28;20244;-71
2023/04/24 06:25:47;;;;;;;36.40;22.65;;;;;;;;;;5034035;28;20197;-71
2023/04/24 06:28:12;;;;;;;29.08;21.48;;;;;;;;;;5038391;28;20256;-70
2023/04/24 06:30:38;;;;;;;32.60;22.70;;;;;;;;;;5038936;28;20299;-71
2023/04/24 06:33:03;;;;;;;34.45;22.00;;;;;;;;;;5046202;28;20304;-72
2023/04/24 06:35:29;;;;;;;32.50;21.75;;;;;;;;;;5046961;28;20201;-70
2023/04/24 06:37:56;;;;;;;34.08;21.95;;;;;;;;;;5041574;28;20197;-70
2023/04/24 06:40:21;;;;;;;29.13;21.20;;;;;;;;;;5036722;28;20189;-68
2023/04/24 06:42:47;;;;;;;32.05;20.15;;;;;;;;;;5042272;28;20198;-67
2023/04/24 06:45:12;;;;;;;34.20;21.52;;;;;;;;;;5039451;28;20903;-68
2023/04/24 06:47:38;;;;;;;32.25;21.38;;;;;;;;;;5037217;28;20193;-71
2023/04/24 06:50:03;;;;;;;35.22;21.85;;;;;;;;;;5034755;28;20189;-71
2023/04/24 06:52:32;;;;;;;30.70;20.75;;;;;;;;;;5038835;28;20649;-72
2023/04/24 06:55:04;;;;;;;30.65;21.08;;;;;;;;;;5029971;28;20243;-71
2023/04/24 06:57:30;;;;;;;34.28;20.60;;;;;;;;;;5044280;28;20247;-71
2023/04/24 06:59:55;;;;;;;29.10;19.85;;;;;;;;;;5034833;28;20316;-71
2023/04/24 07:02:21;;;;;;;27.55;19.05;;;;;;;;;;5037481;28;20181;-69
2023/04/24 07:04:47;;;;;;;29.40;18.52;;;;;;;;;;5050200;28;20213;-71
2023/04/24 07:07:14;;;;;;;28.73;19.88;;;;;;;;;;5044668;28;20649;-70
2023/04/24 07:09:42;;;;;;;28.05;19.50;;;;;;;;;;5037645;28;20188;-71
2023/04/24 07:12:08;;;;;;;26.75;19.38;;;;;;;;;;5032529;28;20317;-71
2023/04/24 07:14:33;;;;;;;29.15;19.75;;;;;;;;;;5043889;28;20197;-72
2023/04/24 07:16:58;;;;;;;30.67;19.58;;;;;;;;;;5044422;28;20196;-71
2023/04/24 07:19:24;;;;;;;28.40;19.15;;;;;;;;;;5047932;28;20205;-71
2023/04/24 07:21:50;;;;;;;32.40;20.95;;;;;;;;;;5031459;28;20193;-72
2023/04/24 07:24:15;;;;;;;23.65;17.25;;;;;;;;;;5039130;28;20561;-71
2023/04/24 07:26:40;;;;;;;27.52;17.05;;;;;;;;;;5038528;28;20217;-71
2023/04/24 07:29:07;;;;;;;25.85;16.60;;;;;;;;;;5045625;28;20197;-72
2023/04/24 07:31:33;;;;;;;24.15;15.30;;;;;;;;;;5040197;28;20934;-72
2023/04/24 07:33:58;;;;;;;21.27;13.32;;;;;;;;;;5044865;28;20417;-73
2023/04/24 07:36:25;;;;;;;19.38;13.30;;;;;;;;;;5039609;28;20205;-72
2023/04/24 07:38:51;;;;;;;17.15;11.50;;;;;;;;;;5031959;28;20186;-73
2023/04/24 07:41:16;;;;;;;16.80;11.52;;;;;;;;;;5037080;28;20186;-71
2023/04/24 07:43:42;;;;;;;16.90;11.27;;;;;;;;;;5038468;28;20766;-72
2023/04/24 07:46:08;;;;;;;12.93;9.65;;;;;;;;;;5033163;28;20259;-73
2023/04/24 07:48:35;;;;;;;13.40;9.57;;;;;;;;;;5029455;28;20193;-72
2023/04/24 07:51:00;;;;;;;14.65;9.75;;;;;;;;;;5043500;28;20281;-72
2023/04/24 07:53:26;;;;;;;13.50;9.27;;;;;;;;;;5036975;28;20213;-73
2023/04/24 07:55:51;;;;;;;14.65;9.02;;;;;;;;;;5041365;28;20206;-73
2023/04/24 07:58:16;;;;;;;12.00;8.68;;;;;;;;;;5045209;28;20665;-72
2023/04/24 08:00:42;;;;;;;14.40;8.70;;;;;;;;;;5045361;28;20335;-72
2023/04/24 08:03:07;;;;;;;12.93;8.65;;;;;;;;;;5038011;28;20193;-71
2023/04/24 08:05:33;;;;;;;10.43;8.20;;;;;;;;;;5045382;28;20275;-72
2023/04/24 08:07:58;;;;;;;15.55;8.73;;;;;;;;;;5043755;28;20217;-73
2023/04/24 08:10:24;;;;;;;11.38;7.22;;;;;;;;;;5035463;28;20264;-72
2023/04/24 08:12:49;;;;;;;9.38;6.75;;;;;;;;;;5041270;28;20650;-74
2023/04/24 08:15:15;;;;;;;10.80;7.20;;;;;;;;;;5043454;28;20268;-74
2023/04/24 08:17:40;;;;;;;12.73;6.70;;;;;;;;;;5039128;28;20500;-76
2023/04/24 08:20:10;;;;;;;7.85;5.78;;;;;;;;;;5020780;28;20201;-75
2023/04/24 08:22:35;;;;;;;7.22;5.20;;;;;;;;;;5036128;28;20792;-74
2023/04/24 08:25:01;;;;;;;6.75;5.13;;;;;;;;;;5035390;28;20288;-75
2023/04/24 08:27:27;;;;;;;5.72;4.82;;;;;;;;;;5043458;28;20517;-74
2023/04/24 08:29:54;;;;;;;8.18;4.57;;;;;;;;;;5041892;28;20205;-74
2023/04/24 08:32:19;;;;;;;5.60;4.30;;;;;;;;;;5032010;28;20185;-73
2023/04/24 08:34:45;;;;;;;5.55;4.10;;;;;;;;;;5043090;28;20304;-72
2023/04/24 08:37:10;;;;;;;5.97;3.50;;;;;;;;;;5038691;28;20209;-73
2023/04/24 08:39:36;;;;;;;4.05;3.30;;;;;;;;;;5040304;28;20220;-73
2023/04/24 08:42:05;;;;;;;4.45;3.08;;;;;;;;;;5041031;28;20186;-72
2023/04/24 08:44:32;;;;;;;3.13;2.75;;;;;;;;;;5037414;28;20276;-72
2023/04/24 08:46:58;;;;;;;3.63;2.97;;;;;;;;;;5031881;28;20229;-72
2023/04/24 08:49:25;;;;;;;3.45;3.00;;;;;;;;;;5042560;28;20220;-74
2023/04/24 08:51:52;;;;;;;3.55;2.65;;;;;;;;;;5042435;28;20204;-72
2023/04/24 08:54:18;;;;;;;3.88;2.75;;;;;;;;;;5036729;28;20272;-74
2023/04/24 08:56:44;;;;;;;3.03;2.53;;;;;;;;;;5032925;28;20226;-74
2023/04/24 08:59:10;;;;;;;3.72;2.50;;;;;;;;;;5037287;28;20343;-73
2023/04/24 09:01:39;;;;;;;3.22;2.20;;;;;;;;;;5033229;28;20288;-74
2023/04/24 09:04:08;;;;;;;4.53;2.33;;;;;;;;;;5029029;28;20672;-75
2023/04/24 09:06:34;;;;;;;2.50;2.00;;;;;;;;;;5034855;28;20182;-72
2023/04/24 09:09:01;;;;;;;4.15;2.58;;;;;;;;;;5036642;28;20653;-73
2023/04/24 09:11:27;;;;;;;9.25;6.68;;;;;;;;;;5037055;28;20335;-73
2023/04/24 09:13:56;;;;;;;14.02;6.88;;;;;;;;;;5028487;28;20650;-71
2023/04/24 09:16:23;;;;;;;18.38;9.75;;;;;;;;;;5042082;28;20276;-74
2023/04/24 09:18:49;;;;;;;16.05;10.55;;;;;;;;;;5040898;28;20185;-71
2023/04/24 09:21:15;;;;;;;19.50;11.95;;;;;;;;;;5033194;28;20193;-73
2023/04/24 09:23:41;;;;;;;17.10;11.50;;;;;;;;;;5040658;28;20308;-73
2023/04/24 09:26:08;;;;;;;24.20;11.98;;;;;;;;;;5044976;28;20204;-72
2023/04/24 09:28:38;;;;;;;23.38;12.30;;;;;;;;;;5042175;28;20572;-73
2023/04/24 09:31:18;;;;;;;23.17;12.82;;;;;;;;;;5040530;28;20197;-74
2023/04/24 09:33:54;;;;;;;23.05;12.52;;;;;;;;;;5039236;28;20177;-75
2023/04/24 09:36:27;;;;;;;20.77;13.13;;;;;;;;;;5036670;28;20204;-75
2023/04/24 09:38:58;;;;;;;24.63;13.85;;;;;;;;;;5043417;28;20282;-73
2023/04/24 09:41:23;;;;;;;23.20;13.63;;;;;;;;;;5039157;28;20500;-74
2023/04/24 09:43:49;;;;;;;24.45;14.05;;;;;;;;;;5037169;28;20206;-74
2023/04/24 09:46:18;;;;;;;23.08;13.77;;;;;;;;;;5037180;28;20256;-71
2023/04/24 09:48:43;;;;;;;21.38;13.35;;;;;;;;;;5023221;28;20182;-72
2023/04/24 09:51:11;;;;;;;24.00;13.90;;;;;;;;;;5039989;28;20661;-73
2023/04/24 09:53:36;;;;;;;27.55;13.57;;;;;;;;;;5036557;28;20193;-72
2023/04/24 09:56:06;;;;;;;21.05;13.30;;;;;;;;;;5046801;28;20209;-72
2023/04/24 09:58:32;;;;;;;23.48;12.15;;;;;;;;;;5033747;28;20238;-72
2023/04/24 10:00:57;;;;;;;19.70;12.40;;;;;;;;;;5038888;28;20209;-72
2023/04/24 10:03:30;;;;;;;20.27;11.60;;;;;;;;;;5045834;28;20216;-72
2023/04/24 10:05:59;;;;;;;19.60;10.95;;;;;;;;;;5052191;28;20196;-72
2023/04/24 10:08:26;;;;;;;19.05;10.68;;;;;;;;;;5030887;28;20259;-73
2023/04/24 10:10:52;;;;;;;21.75;11.00;;;;;;;;;;5017260;28;20193;-72
2023/04/24 10:13:17;;;;;;;18.08;11.05;;;;;;;;;;5040956;28;20192;-72
2023/04/24 10:15:43;;;;;;;20.38;10.65;;;;;;;;;;5036379;28;20280;-73
2023/04/24 10:18:10;;;;;;;20.02;10.93;;;;;;;;;;5041843;28;20621;-72
2023/04/24 10:20:37;;;;;;;21.85;10.45;;;;;;;;;;5037827;28;20201;-73
2023/04/24 10:23:03;;;;;;;19.55;11.43;;;;;;;;;;5040558;28;20552;-74
2023/04/24 10:25:31;;;;;;;16.98;9.48;;;;;;;;;;5031349;28;20189;-71
2023/04/24 10:27:59;;;;;;;19.70;10.57;;;;;;;;;;5032893;28;20226;-73
2023/04/24 10:30:26;;;;;;;19.85;10.85;;;;;;;;;;5037039;28;20455;-73
2023/04/24 10:32:51;;;;;;;17.05;10.40;;;;;;;;;;5033385;28;20284;-71
2023/04/24 10:35:19;;;;;;;19.23;9.77;;;;;;;;;;5035852;28;20217;-71
2023/04/24 10:38:07;;;;;;;19.10;9.00;;;;;;;;;;5036572;28;20194;-71
2023/04/24 10:40:35;;;;;;;16.98;8.15;;;;;;;;;;5043132;28;20242;-71
2023/04/24 10:43:10;;;;;;;14.75;6.88;;;;;;;;;;5036466;28;20189;-70
2023/04/24 10:45:37;;;;;;;11.23;5.90;;;;;;;;;;5030218;28;20244;-73
2023/04/24 10:48:05;;;;;;;8.60;4.90;;;;;;;;;;5027916;28;20259;-69
2023/04/24 10:50:51;;;;;;;17.13;5.22;;;;;;;;;;5038413;28;20239;-73
2023/04/24 10:53:19;;;;;;;13.40;5.75;;;;;;;;;;5041930;28;20516;-71
2023/04/24 10:55:54;;;;;;;10.70;3.90;;;;;;;;;;5039042;28;20556;-71
2023/04/24 10:58:23;;;;;;;11.23;4.50;;;;;;;;;;5037950;28;20213;-72
2023/04/24 11:00:59;;;;;;;14.27;4.53;;;;;;;;;;5036066;28;20533;-71
2023/04/24 11:03:29;;;;;;;11.77;4.63;;;;;;;;;;5041830;28;20220;-71
2023/04/24 11:06:06;;;;;;;13.10;5.10;;;;;;;;;;5040050;28;20323;-72
2023/04/24 11:08:39;;;;;;;14.30;4.57;;;;;;;;;;5034062;28;20190;-71
2023/04/24 11:11:14;;;;;;;12.25;4.60;;;;;;;;;;5045310;28;20189;-73
2023/04/24 11:13:55;;;;;;;12.82;5.10;;;;;;;;;;5037658;28;20265;-73
2023/04/24 11:16:33;;;;;;;18.20;5.13;;;;;;;;;;5044619;28;20205;-71
2023/04/24 11:19:03;;;;;;;10.98;4.55;;;;;;;;;;5045376;28;20190;-72
2023/04/24 11:21:55;;;;;;;14.13;4.43;;;;;;;;;;5038801;28;20272;-72
2023/04/24 11:24:37;;;;;;;14.50;4.40;;;;;;;;;;5034678;28;20259;-72
2023/04/24 11:27:13;;;;;;;12.27;4.10;;;;;;;;;;5047609;28;20203;-70
2023/04/24 11:29:48;;;;;;;13.25;3.65;;;;;;;;;;5048181;28;20189;-71
2023/04/24 11:32:30;;;;;;;15.10;3.45;;;;;;;;;;5036043;28;20458;-69
2023/04/24 11:34:58;;;;;;;11.60;3.65;;;;;;;;;;5045936;28;20191;-70
2023/04/24 11:37:26;;;;;;;10.48;3.72;;;;;;;;;;5048424;28;20276;-70
2023/04/24 11:39:53;;;;;;;9.57;3.22;;;;;;;;;;5044602;28;20185;-73
2023/04/24 11:42:21;;;;;;;9.23;3.28;;;;;;;;;;5036009;28;20186;-69
2023/04/24 11:44:47;;;;;;;14.27;3.58;;;;;;;;;;5030968;28;20341;-70
2023/04/24 11:47:12;;;;;;;11.95;2.95;;;;;;;;;;5042950;28;20185;-69
2023/04/24 11:49:38;;;;;;;10.55;3.55;;;;;;;;;;5038064;28;20616;-68
2023/04/24 11:52:04;;;;;;;12.25;3.10;;;;;;;;;;5039355;28;20190;-69
2023/04/24 11:54:30;;;;;;;14.05;3.35;;;;;;;;;;5037950;28;20210;-67
2023/04/24 11:56:56;;;;;;;11.63;2.28;;;;;;;;;;5042502;28;20227;-69
2023/04/24 11:59:21;;;;;;;10.90;3.00;;;;;;;;;;5047501;28;20200;-68
2023/04/24 12:01:48;;;;;;;8.13;2.60;;;;;;;;;;5043115;28;20236;-68
2023/04/24 12:04:15;;;;;;;6.93;2.33;;;;;;;;;;5041948;28;20305;-67
2023/04/24 12:06:58;;;;;;;8.82;2.60;;;;;;;;;;5042527;28;20192;-68
2023/04/24 12:09:23;;;;;;;11.82;2.50;;;;;;;;;;5042811;28;20433;-69
2023/04/24 12:11:57;;;;;;;7.07;2.47;;;;;;;;;;5034473;28;20646;-68
2023/04/24 12:14:24;;;;;;;12.05;3.53;;;;;;;;;;5038382;28;20250;-68
2023/04/24 12:16:50;;;;;;;10.85;2.00;;;;;;;;;;5043119;28;20525;-69
2023/04/24 12:19:22;;;;;;;3.72;1.83;;;;;;;;;;5034714;28;20190;-68
2023/04/24 12:22:02;;;;;;;6.75;2.67;;;;;;;;;;5036413;28;20190;-68
2023/04/24 12:24:28;;;;;;;12.93;1.98;;;;;;;;;;5036133;28;20210;-70
2023/04/24 12:26:53;;;;;;;5.90;1.80;;;;;;;;;;5042975;28;20579;-68
2023/04/24 12:29:22;;;;;;;10.48;2.10;;;;;;;;;;5034048;28;20185;-69
2023/04/24 12:31:48;;;;;;;6.18;2.05;;;;;;;;;;5042409;28;20653;-68
2023/04/24 12:34:20;;;;;;;12.10;2.20;;;;;;;;;;5040212;28;20265;-68
2023/04/24 12:36:46;;;;;;;5.93;1.90;;;;;;;;;;5038459;28;20640;-68
2023/04/24 12:39:16;;;;;;;8.52;2.05;;;;;;;;;;5049381;28;20763;-68
2023/04/24 12:41:56;;;;;;;4.75;1.40;;;;;;;;;;5045359;28;20209;-67
2023/04/24 12:44:34;;;;;;;5.15;1.90;;;;;;;;;;5045095;28;20287;-67
2023/04/24 12:46:59;;;;;;;8.00;2.22;;;;;;;;;;5042543;28;20209;-68
2023/04/24 12:49:25;;;;;;;7.03;1.80;;;;;;;;;;5049085;28;20228;-68
2023/04/24 12:51:51;;;;;;;3.97;1.38;;;;;;;;;;5045270;28;20219;-68
2023/04/24 12:54:16;;;;;;;7.25;1.67;;;;;;;;;;5042862;28;20202;-69
2023/04/24 12:56:41;;;;;;;8.32;1.80;;;;;;;;;;5036852;28;20318;-68
2023/04/24 12:59:07;;;;;;;6.93;1.83;;;;;;;;;;5035751;28;20185;-67
2023/04/24 13:01:32;;;;;;;5.88;1.50;;;;;;;;;;5037416;28;20212;-68
2023/04/24 13:03:58;;;;;;;6.15;1.77;;;;;;;;;;5052517;28;20320;-68
2023/04/24 13:06:23;;;;;;;6.68;1.77;;;;;;;;;;5056353;28;20342;-69
2023/04/24 13:08:48;;;;;;;4.43;1.38;;;;;;;;;;5048950;28;20187;-68
2023/04/24 13:11:14;;;;;;;6.90;1.30;;;;;;;;;;5047003;28;20561;-69
2023/04/24 13:13:40;;;;;;;6.93;1.48;;;;;;;;;;5049395;28;20197;-69
2023/04/24 13:16:05;;;;;;;4.47;1.20;;;;;;;;;;5047318;28;20189;-67
2023/04/24 13:18:30;;;;;;;5.20;1.50;;;;;;;;;;5046413;28;20218;-68
2023/04/24 13:20:56;;;;;;;8.70;1.67;;;;;;;;;;5038186;28;20197;-68
2023/04/24 13:23:22;;;;;;;3.63;1.30;;;;;;;;;;5039639;28;20216;-69
2023/04/24 13:25:48;;;;;;;5.03;1.27;;;;;;;;;;5048640;28;20312;-69
2023/04/24 13:28:13;;;;;;;4.55;1.05;;;;;;;;;;4338631;28;10000738;-69
2023/04/24 13:30:39;;;;;;;2.28;0.85;;;;;;;;;;5048885;28;20634;-68
2023/04/24 13:33:04;;;;;;;2.35;0.80;;;;;;;;;;5050869;28;20197;-68
2023/04/24 13:35:30;;;;;;;5.93;1.30;;;;;;;;;;5046247;28;20185;-66
2023/04/24 13:37:56;;;;;;;3.75;0.93;;;;;;;;;;5052049;28;20535;-69
2023/04/24 13:40:21;;;;;;;5.25;0.70;;;;;;;;;;5052720;28;20588;-68
2023/04/24 13:42:46;;;;;;;2.03;0.70;;;;;;;;;;5045145;28;20189;-69
2023/04/24 13:45:12;;;;;;;1.30;0.60;;;;;;;;;;5037673;28;20244;-69
2023/04/24 13:47:40;;;;;;;3.38;0.57;;;;;;;;;;5039345;28;20273;-69
2023/04/24 13:50:07;;;;;;;3.05;0.63;;;;;;;;;;5037941;28;20213;-67
2023/04/24 13:52:32;;;;;;;2.53;0.63;;;;;;;;;;5043003;28;20193;-69
2023/04/24 13:54:58;;;;;;;4.18;0.93;;;;;;;;;;5039228;28;20200;-67
2023/04/24 13:57:23;;;;;;;4.20;0.60;;;;;;;;;;5041037;28;20195;-67
2023/04/24 13:59:48;;;;;;;4.47;1.00;;;;;;;;;;5050717;28;20567;-68
2023/04/24 14:02:14;;;;;;;3.28;1.00;;;;;;;;;;5039324;28;20198;-68
2023/04/24 14:04:39;;;;;;;3.78;0.90;;;;;;;;;;5044494;28;20213;-68
2023/04/24 14:07:05;;;;;;;1.92;1.20;;;;;;;;;;5036023;28;20232;-68
2023/04/24 14:09:30;;;;;;;3.88;1.10;;;;;;;;;;5041241;28;21665;-68
2023/04/24 14:11:56;;;;;;;8.43;0.93;;;;;;;;;;5045034;28;20312;-68
2023/04/24 14:14:21;;;;;;;8.82;1.10;;;;;;;;;;5044348;28;20185;-68
2023/04/24 14:16:46;;;;;;;5.35;1.00;;;;;;;;;;5048151;28;20192;-67
2023/04/24 14:19:12;;;;;;;5.00;1.05;;;;;;;;;;5055232;28;20184;-67
2023/04/24 14:21:37;;;;;;;2.03;0.88;;;;;;;;;;5043296;28;20603;-67
2023/04/24 14:24:02;;;;;;;4.22;0.95;;;;;;;;;;5043122;28;20228;-67
2023/04/24 14:26:28;;;;;;;5.35;1.45;;;;;;;;;;5049191;28;20216;-67